sensor_id;sensor_type;location;lat;lon;timestamp;pressure;altitude;pressure_sealevel;temperature;humidity
47080;BME280;33067;49.296;14.470;2023-08-12T00:00:30;97529.45;;;20.51;42.98
47080;BME280;33067;49.296;14.470;2023-08-12T00:02:55;97529.43;;;20.15;43.49
47080;BME280;33067;49.296;14.470;2023-08-12T00:05:20;97524.32;;;20.23;43.39
47080;BME280;33067;49.296;14.470;2023-08-12T00:07:46;97520.34;;;20.10;43.27
47080;BME280;33067;49.296;14.470;2023-08-12T00:10:12;97514.85;;;20.28;43.30
47080;BME280;33067;49.296;14.470;2023-08-12T00:12:36;97511.79;;;20.45;42.86
47080;BME280;33067;49.296;14.470;2023-08-12T00:15:02;97513.22;;;20.17;43.23
47080;BME280;33067;49.296;14.470;2023-08-12T00:17:27;97511.11;;;20.14;43.62
47080;BME280;33067;49.296;14.470;2023-08-12T00:19:53;97509.53;;;19.84;43.44
47080;BME280;33067;49.296;14.470;2023-08-12T00:22:17;97511.99;;;20.15;43.40
47080;BME280;33067;49.296;14.470;2023-08-12T00:24:43;97509.25;;;19.82;43.76
47080;BME280;33067;49.296;14.470;2023-08-12T00:27:10;97506.33;;;19.68;43.95
47080;BME280;33067;49.296;14.470;2023-08-12T00:29:34;97506.18;;;20.09;43.18
47080;BME280;33067;49.296;14.470;2023-08-12T00:31:59;97506.85;;;19.76;43.33
47080;BME280;33067;49.296;14.470;2023-08-12T00:34:25;97513.08;;;19.46;43.55
47080;BME280;33067;49.296;14.470;2023-08-12T00:36:50;97510.70;;;19.21;43.92
47080;BME280;33067;49.296;14.470;2023-08-12T00:39:16;97506.94;;;19.24;43.78
47080;BME280;33067;49.296;14.470;2023-08-12T00:41:41;97502.54;;;19.31;43.54
47080;BME280;33067;49.296;14.470;2023-08-12T00:44:07;97497.53;;;19.81;42.45
47080;BME280;33067;49.296;14.470;2023-08-12T00:46:33;97497.29;;;19.47;43.09
47080;BME280;33067;49.296;14.470;2023-08-12T00:48:57;97503.29;;;19.45;43.41
47080;BME280;33067;49.296;14.470;2023-08-12T00:51:23;97505.50;;;19.49;43.26
47080;BME280;33067;49.296;14.470;2023-08-12T00:53:48;97505.43;;;19.14;43.33
47080;BME280;33067;49.296;14.470;2023-08-12T00:56:14;97503.40;;;19.35;43.59
47080;BME280;33067;49.296;14.470;2023-08-12T00:58:38;97502.08;;;19.17;43.66
47080;BME280;33067;49.296;14.470;2023-08-12T01:01:04;97502.52;;;19.39;43.80
47080;BME280;33067;49.296;14.470;2023-08-12T01:03:30;97505.37;;;19.28;44.03
47080;BME280;33067;49.296;14.470;2023-08-12T01:05:55;97508.29;;;19.29;44.13
47080;BME280;33067;49.296;14.470;2023-08-12T01:08:20;97506.11;;;19.00;44.26
47080;BME280;33067;49.296;14.470;2023-08-12T01:10:52;97505.42;;;19.30;44.03
47080;BME280;33067;49.296;14.470;2023-08-12T01:13:19;97503.46;;;18.99;44.23
47080;BME280;33067;49.296;14.470;2023-08-12T01:15:38;97500.18;;;19.00;44.07
47080;BME280;33067;49.296;14.470;2023-08-12T01:18:03;97501.22;;;19.18;43.53
47080;BME280;33067;49.296;14.470;2023-08-12T01:20:29;97502.55;;;19.00;43.80
47080;BME280;33067;49.296;14.470;2023-08-12T01:22:58;97499.78;;;19.19;43.42
47080;BME280;33067;49.296;14.470;2023-08-12T01:25:19;97499.48;;;19.14;43.45
47080;BME280;33067;49.296;14.470;2023-08-12T01:27:44;97496.30;;;19.33;43.56
47080;BME280;33067;49.296;14.470;2023-08-12T01:30:11;97495.11;;;19.04;43.56
47080;BME280;33067;49.296;14.470;2023-08-12T01:32:40;97495.19;;;19.32;43.42
47080;BME280;33067;49.296;14.470;2023-08-12T01:35:07;97495.39;;;19.35;43.34
47080;BME280;33067;49.296;14.470;2023-08-12T01:37:29;97491.21;;;19.29;43.34
47080;BME280;33067;49.296;14.470;2023-08-12T01:39:52;97484.80;;;19.08;43.69
47080;BME280;33067;49.296;14.470;2023-08-12T01:42:18;97485.81;;;19.11;43.49
47080;BME280;33067;49.296;14.470;2023-08-12T01:44:43;97481.94;;;18.83;44.04
47080;BME280;33067;49.296;14.470;2023-08-12T01:47:09;97479.24;;;18.66;44.34
47080;BME280;33067;49.296;14.470;2023-08-12T01:49:34;97478.96;;;18.67;44.34
47080;BME280;33067;49.296;14.470;2023-08-12T01:51:59;97476.74;;;18.77;44.10
47080;BME280;33067;49.296;14.470;2023-08-12T01:54:25;97478.72;;;18.80;44.02
47080;BME280;33067;49.296;14.470;2023-08-12T01:56:51;97478.68;;;18.55;44.48
47080;BME280;33067;49.296;14.470;2023-08-12T01:59:16;97478.38;;;19.14;44.26
47080;BME280;33067;49.296;14.470;2023-08-12T02:01:42;97479.16;;;18.95;44.23
47080;BME280;33067;49.296;14.470;2023-08-12T02:04:07;97477.62;;;18.67;44.45
47080;BME280;33067;49.296;14.470;2023-08-12T02:06:32;97473.40;;;18.74;44.18
47080;BME280;33067;49.296;14.470;2023-08-12T02:08:58;97470.96;;;18.70;43.88
47080;BME280;33067;49.296;14.470;2023-08-12T02:13:00;97474.64;;;18.76;43.11
47080;BME280;33067;49.296;14.470;2023-08-12T02:15:25;97476.32;;;18.71;43.55
47080;BME280;33067;49.296;14.470;2023-08-12T02:17:51;97474.21;;;18.55;43.83
47080;BME280;33067;49.296;14.470;2023-08-12T02:20:17;97475.35;;;18.46;43.73
47080;BME280;33067;49.296;14.470;2023-08-12T02:22:42;97477.96;;;18.69;43.59
47080;BME280;33067;49.296;14.470;2023-08-12T02:25:08;97481.40;;;18.28;43.58
47080;BME280;33067;49.296;14.470;2023-08-12T02:27:33;97474.60;;;18.36;43.37
47080;BME280;33067;49.296;14.470;2023-08-12T02:29:58;97477.95;;;18.43;42.62
47080;BME280;33067;49.296;14.470;2023-08-12T02:32:23;97476.27;;;18.83;42.43
47080;BME280;33067;49.296;14.470;2023-08-12T02:34:48;97471.62;;;18.51;42.36
47080;BME280;33067;49.296;14.470;2023-08-12T02:37:14;97477.58;;;18.70;42.10
47080;BME280;33067;49.296;14.470;2023-08-12T02:39:39;97478.24;;;18.89;41.76
47080;BME280;33067;49.296;14.470;2023-08-12T02:42:05;97479.33;;;18.91;41.70
47080;BME280;33067;49.296;14.470;2023-08-12T02:44:29;97480.01;;;18.97;41.65
47080;BME280;33067;49.296;14.470;2023-08-12T02:46:54;97479.57;;;19.07;41.48
47080;BME280;33067;49.296;14.470;2023-08-12T02:49:20;97476.97;;;19.08;40.26
47080;BME280;33067;49.296;14.470;2023-08-12T02:51:45;97470.87;;;19.27;40.09
47080;BME280;33067;49.296;14.470;2023-08-12T02:54:11;97467.53;;;19.26;40.06
47080;BME280;33067;49.296;14.470;2023-08-12T02:56:37;97466.90;;;18.98;40.64
47080;BME280;33067;49.296;14.470;2023-08-12T02:59:02;97465.80;;;18.82;41.11
47080;BME280;33067;49.296;14.470;2023-08-12T03:01:28;97463.83;;;18.82;41.26
47080;BME280;33067;49.296;14.470;2023-08-12T03:03:53;97464.03;;;18.79;41.36
47080;BME280;33067;49.296;14.470;2023-08-12T03:06:18;97461.41;;;18.92;41.15
47080;BME280;33067;49.296;14.470;2023-08-12T03:08:44;97460.26;;;18.97;41.31
47080;BME280;33067;49.296;14.470;2023-08-12T03:11:09;97458.42;;;19.11;41.02
47080;BME280;33067;49.296;14.470;2023-08-12T03:13:35;97461.66;;;18.95;41.23
47080;BME280;33067;49.296;14.470;2023-08-12T03:16:00;97464.72;;;18.94;41.24
47080;BME280;33067;49.296;14.470;2023-08-12T03:18:25;97462.43;;;18.92;41.58
47080;BME280;33067;49.296;14.470;2023-08-12T03:20:51;97463.20;;;18.71;41.65
47080;BME280;33067;49.296;14.470;2023-08-12T03:23:17;97463.55;;;18.81;41.48
47080;BME280;33067;49.296;14.470;2023-08-12T03:25:42;97463.04;;;18.73;41.45
47080;BME280;33067;49.296;14.470;2023-08-12T03:28:07;97456.67;;;19.11;40.44
47080;BME280;33067;49.296;14.470;2023-08-12T03:30:33;97457.26;;;18.66;41.09
47080;BME280;33067;49.296;14.470;2023-08-12T03:32:58;97455.37;;;18.54;41.49
47080;BME280;33067;49.296;14.470;2023-08-12T03:35:23;97454.08;;;18.53;41.48
47080;BME280;33067;49.296;14.470;2023-08-12T03:37:49;97449.16;;;18.68;41.60
47080;BME280;33067;49.296;14.470;2023-08-12T03:40:14;97451.16;;;18.62;41.34
47080;BME280;33067;49.296;14.470;2023-08-12T03:42:39;97451.95;;;18.28;41.84
47080;BME280;33067;49.296;14.470;2023-08-12T03:45:06;97452.09;;;18.42;41.58
47080;BME280;33067;49.296;14.470;2023-08-12T03:47:30;97455.30;;;18.36;41.75
47080;BME280;33067;49.296;14.470;2023-08-12T03:49:56;97457.41;;;18.46;42.09
47080;BME280;33067;49.296;14.470;2023-08-12T03:52:23;97455.84;;;18.12;42.04
47080;BME280;33067;49.296;14.470;2023-08-12T03:54:47;97452.79;;;18.10;42.24
47080;BME280;33067;49.296;14.470;2023-08-12T03:57:12;97450.24;;;18.50;41.40
47080;BME280;33067;49.296;14.470;2023-08-12T03:59:38;97451.58;;;18.59;41.27
47080;BME280;33067;49.296;14.470;2023-08-12T04:02:03;97453.21;;;18.59;41.32
47080;BME280;33067;49.296;14.470;2023-08-12T04:04:29;97455.60;;;18.57;41.38
47080;BME280;33067;49.296;14.470;2023-08-12T04:06:53;97458.51;;;18.36;41.37
47080;BME280;33067;49.296;14.470;2023-08-12T04:09:19;97458.63;;;18.35;41.42
47080;BME280;33067;49.296;14.470;2023-08-12T04:11:46;97452.86;;;18.69;41.34
47080;BME280;33067;49.296;14.470;2023-08-12T04:14:10;97452.42;;;18.55;41.15
47080;BME280;33067;49.296;14.470;2023-08-12T04:16:35;97451.23;;;18.88;41.15
47080;BME280;33067;49.296;14.470;2023-08-12T04:19:00;97449.74;;;19.17;40.66
47080;BME280;33067;49.296;14.470;2023-08-12T04:21:25;97454.35;;;18.76;41.12
47080;BME280;33067;49.296;14.470;2023-08-12T04:23:50;97449.56;;;18.82;41.04
47080;BME280;33067;49.296;14.470;2023-08-12T04:26:15;97450.17;;;18.90;40.91
47080;BME280;33067;49.296;14.470;2023-08-12T04:28:41;97449.69;;;19.18;40.49
47080;BME280;33067;49.296;14.470;2023-08-12T04:31:07;97447.86;;;19.08;40.69
47080;BME280;33067;49.296;14.470;2023-08-12T04:33:31;97446.28;;;19.12;40.42
47080;BME280;33067;49.296;14.470;2023-08-12T04:35:57;97443.39;;;19.21;40.15
47080;BME280;33067;49.296;14.470;2023-08-12T04:38:23;97445.63;;;18.95;39.96
47080;BME280;33067;49.296;14.470;2023-08-12T04:40:48;97442.13;;;19.10;40.21
47080;BME280;33067;49.296;14.470;2023-08-12T04:43:13;97442.13;;;19.43;40.14
47080;BME280;33067;49.296;14.470;2023-08-12T04:45:38;97438.19;;;19.08;40.33
47080;BME280;33067;49.296;14.470;2023-08-12T04:48:04;97437.56;;;19.19;40.09
47080;BME280;33067;49.296;14.470;2023-08-12T04:50:29;97439.89;;;18.78;40.84
47080;BME280;33067;49.296;14.470;2023-08-12T04:52:54;97440.78;;;19.23;40.21
47080;BME280;33067;49.296;14.470;2023-08-12T04:55:20;97442.96;;;18.62;40.56
47080;BME280;33067;49.296;14.470;2023-08-12T04:57:45;97442.42;;;19.05;40.39
47080;BME280;33067;49.296;14.470;2023-08-12T05:00:12;97444.57;;;19.07;40.40
47080;BME280;33067;49.296;14.470;2023-08-12T05:02:36;97445.30;;;18.71;40.97
47080;BME280;33067;49.296;14.470;2023-08-12T05:05:02;97446.42;;;19.01;40.83
47080;BME280;33067;49.296;14.470;2023-08-12T05:07:27;97442.29;;;19.47;40.37
47080;BME280;33067;49.296;14.470;2023-08-12T05:09:52;97443.70;;;19.94;40.13
47080;BME280;33067;49.296;14.470;2023-08-12T05:12:17;97440.11;;;20.25;39.65
47080;BME280;33067;49.296;14.470;2023-08-12T05:14:42;97442.23;;;20.56;38.65
47080;BME280;33067;49.296;14.470;2023-08-12T05:17:07;97439.53;;;20.35;38.59
47080;BME280;33067;49.296;14.470;2023-08-12T05:19:33;97442.48;;;20.14;38.55
47080;BME280;33067;49.296;14.470;2023-08-12T05:21:58;97442.18;;;20.38;38.58
47080;BME280;33067;49.296;14.470;2023-08-12T05:24:24;97445.24;;;20.39;38.39
47080;BME280;33067;49.296;14.470;2023-08-12T05:26:49;97447.61;;;20.30;38.23
47080;BME280;33067;49.296;14.470;2023-08-12T05:29:14;97449.63;;;20.57;38.11
47080;BME280;33067;49.296;14.470;2023-08-12T05:31:39;97448.25;;;21.23;38.27
47080;BME280;33067;49.296;14.470;2023-08-12T05:34:05;97446.44;;;21.51;38.34
47080;BME280;33067;49.296;14.470;2023-08-12T05:36:30;97442.68;;;21.27;38.00
47080;BME280;33067;49.296;14.470;2023-08-12T05:38:55;97442.06;;;21.61;37.50
47080;BME280;33067;49.296;14.470;2023-08-12T05:41:20;97438.98;;;21.63;37.54
47080;BME280;33067;49.296;14.470;2023-08-12T05:43:46;97436.57;;;22.04;37.46
47080;BME280;33067;49.296;14.470;2023-08-12T05:46:11;97434.19;;;22.59;37.41
47080;BME280;33067;49.296;14.470;2023-08-12T05:48:36;97432.84;;;22.63;36.91
47080;BME280;33067;49.296;14.470;2023-08-12T05:51:02;97432.05;;;22.87;36.83
47080;BME280;33067;49.296;14.470;2023-08-12T05:53:28;97428.31;;;22.59;36.32
47080;BME280;33067;49.296;14.470;2023-08-12T05:55:54;97427.91;;;23.49;35.26
47080;BME280;33067;49.296;14.470;2023-08-12T05:58:19;97424.53;;;23.94;35.08
47080;BME280;33067;49.296;14.470;2023-08-12T06:00:45;97424.41;;;24.19;34.89
47080;BME280;33067;49.296;14.470;2023-08-12T06:03:11;97424.76;;;23.94;34.96
47080;BME280;33067;49.296;14.470;2023-08-12T06:05:36;97424.30;;;24.59;34.44
47080;BME280;33067;49.296;14.470;2023-08-12T06:08:03;97420.61;;;24.18;34.16
47080;BME280;33067;49.296;14.470;2023-08-12T06:10:28;97424.27;;;24.06;34.64
47080;BME280;33067;49.296;14.470;2023-08-12T06:12:53;97422.77;;;24.09;34.32
47080;BME280;33067;49.296;14.470;2023-08-12T06:15:19;97420.31;;;24.79;33.84
47080;BME280;33067;49.296;14.470;2023-08-12T06:17:44;97420.45;;;24.77;33.69
47080;BME280;33067;49.296;14.470;2023-08-12T06:20:10;97417.10;;;24.75;34.40
47080;BME280;33067;49.296;14.470;2023-08-12T06:22:35;97416.87;;;25.28;33.15
47080;BME280;33067;49.296;14.470;2023-08-12T06:25:01;97417.04;;;25.04;33.77
47080;BME280;33067;49.296;14.470;2023-08-12T06:27:26;97413.35;;;25.35;33.56
47080;BME280;33067;49.296;14.470;2023-08-12T06:29:52;97414.46;;;25.73;33.40
47080;BME280;33067;49.296;14.470;2023-08-12T06:32:18;97414.48;;;26.07;32.76
47080;BME280;33067;49.296;14.470;2023-08-12T06:34:43;97416.68;;;25.99;33.06
47080;BME280;33067;49.296;14.470;2023-08-12T06:37:09;97413.66;;;26.31;32.56
47080;BME280;33067;49.296;14.470;2023-08-12T06:39:34;97406.90;;;26.52;32.92
47080;BME280;33067;49.296;14.470;2023-08-12T06:42:00;97401.18;;;26.94;31.36
47080;BME280;33067;49.296;14.470;2023-08-12T06:44:26;97398.77;;;26.80;31.37
47080;BME280;33067;49.296;14.470;2023-08-12T06:46:52;97395.69;;;26.73;31.27
47080;BME280;33067;49.296;14.470;2023-08-12T06:49:18;97396.69;;;26.77;31.69
47080;BME280;33067;49.296;14.470;2023-08-12T06:51:44;97394.69;;;27.23;31.23
47080;BME280;33067;49.296;14.470;2023-08-12T06:54:08;97392.51;;;27.70;30.29
47080;BME280;33067;49.296;14.470;2023-08-12T06:56:34;97390.78;;;27.06;30.31
47080;BME280;33067;49.296;14.470;2023-08-12T06:59:00;97389.38;;;26.94;30.04
47080;BME280;33067;49.296;14.470;2023-08-12T07:01:25;97386.56;;;27.14;30.15
47080;BME280;33067;49.296;14.470;2023-08-12T07:03:51;97386.70;;;26.64;31.31
47080;BME280;33067;49.296;14.470;2023-08-12T07:06:16;97383.66;;;27.17;30.75
47080;BME280;33067;49.296;14.470;2023-08-12T07:08:42;97380.03;;;26.76;30.73
47080;BME280;33067;49.296;14.470;2023-08-12T07:11:08;97375.20;;;26.97;30.03
47080;BME280;33067;49.296;14.470;2023-08-12T07:13:33;97375.28;;;27.22;30.48
47080;BME280;33067;49.296;14.470;2023-08-12T07:16:00;97371.95;;;27.15;30.39
47080;BME280;33067;49.296;14.470;2023-08-12T07:18:25;97368.99;;;27.32;30.63
47080;BME280;33067;49.296;14.470;2023-08-12T07:20:50;97369.55;;;27.23;30.36
47080;BME280;33067;49.296;14.470;2023-08-12T07:23:16;97371.35;;;26.98;30.43
47080;BME280;33067;49.296;14.470;2023-08-12T07:25:42;97369.89;;;27.10;30.21
47080;BME280;33067;49.296;14.470;2023-08-12T07:28:07;97369.55;;;26.46;31.11
47080;BME280;33067;49.296;14.470;2023-08-12T07:30:34;97367.14;;;26.87;30.40
47080;BME280;33067;49.296;14.470;2023-08-12T07:32:59;97367.35;;;26.79;31.18
47080;BME280;33067;49.296;14.470;2023-08-12T07:35:25;97363.44;;;27.50;30.86
47080;BME280;33067;49.296;14.470;2023-08-12T07:37:50;97367.31;;;28.28;29.88
47080;BME280;33067;49.296;14.470;2023-08-12T07:40:16;97367.49;;;28.02;30.42
47080;BME280;33067;49.296;14.470;2023-08-12T07:42:44;97363.63;;;28.35;29.65
47080;BME280;33067;49.296;14.470;2023-08-12T07:45:13;97364.25;;;28.86;28.60
47080;BME280;33067;49.296;14.470;2023-08-12T07:47:33;97364.27;;;28.98;28.61
47080;BME280;33067;49.296;14.470;2023-08-12T07:49:59;97365.13;;;29.62;28.41
47080;BME280;33067;49.296;14.470;2023-08-12T07:52:24;97358.37;;;29.61;27.74
47080;BME280;33067;49.296;14.470;2023-08-12T07:54:50;97355.11;;;29.47;27.58
47080;BME280;33067;49.296;14.470;2023-08-12T07:57:15;97355.32;;;29.15;28.07
47080;BME280;33067;49.296;14.470;2023-08-12T07:59:41;97350.73;;;29.65;28.09
47080;BME280;33067;49.296;14.470;2023-08-12T08:02:06;97346.32;;;29.23;27.48
47080;BME280;33067;49.296;14.470;2023-08-12T08:04:32;97340.52;;;28.85;27.84
47080;BME280;33067;49.296;14.470;2023-08-12T08:06:58;97335.93;;;28.28;28.34
47080;BME280;33067;49.296;14.470;2023-08-12T08:09:23;97332.60;;;27.85;29.47
47080;BME280;33067;49.296;14.470;2023-08-12T08:11:49;97327.08;;;26.90;28.67
47080;BME280;33067;49.296;14.470;2023-08-12T08:14:14;97327.70;;;28.91;28.26
47080;BME280;33067;49.296;14.470;2023-08-12T08:16:39;97326.67;;;28.68;28.36
47080;BME280;33067;49.296;14.470;2023-08-12T08:19:05;97326.10;;;28.87;28.26
47080;BME280;33067;49.296;14.470;2023-08-12T08:21:31;97325.63;;;29.19;28.56
47080;BME280;33067;49.296;14.470;2023-08-12T08:23:56;97325.29;;;29.80;28.36
47080;BME280;33067;49.296;14.470;2023-08-12T08:26:22;97323.66;;;29.81;27.42
47080;BME280;33067;49.296;14.470;2023-08-12T08:28:48;97321.63;;;29.77;27.36
47080;BME280;33067;49.296;14.470;2023-08-12T08:31:14;97319.16;;;30.28;27.68
47080;BME280;33067;49.296;14.470;2023-08-12T08:33:39;97320.19;;;28.77;26.94
47080;BME280;33067;49.296;14.470;2023-08-12T08:36:05;97316.27;;;29.39;26.56
47080;BME280;33067;49.296;14.470;2023-08-12T08:38:30;97317.74;;;30.23;26.68
47080;BME280;33067;49.296;14.470;2023-08-12T08:40:58;97314.41;;;30.22;25.18
47080;BME280;33067;49.296;14.470;2023-08-12T08:43:22;97321.49;;;30.15;26.26
47080;BME280;33067;49.296;14.470;2023-08-12T08:45:49;97318.92;;;29.08;26.37
47080;BME280;33067;49.296;14.470;2023-08-12T08:48:13;97315.96;;;29.93;25.53
47080;BME280;33067;49.296;14.470;2023-08-12T08:50:39;97311.94;;;29.61;25.08
47080;BME280;33067;49.296;14.470;2023-08-12T08:53:05;97311.60;;;29.38;25.71
47080;BME280;33067;49.296;14.470;2023-08-12T08:55:30;97308.50;;;29.19;25.93
47080;BME280;33067;49.296;14.470;2023-08-12T08:57:56;97303.99;;;29.81;24.93
47080;BME280;33067;49.296;14.470;2023-08-12T09:00:21;97307.28;;;30.06;24.91
47080;BME280;33067;49.296;14.470;2023-08-12T09:02:47;97305.09;;;29.38;24.47
47080;BME280;33067;49.296;14.470;2023-08-12T09:05:14;97305.84;;;29.31;25.16
47080;BME280;33067;49.296;14.470;2023-08-12T09:07:39;97308.91;;;29.28;25.05
47080;BME280;33067;49.296;14.470;2023-08-12T09:10:04;97306.30;;;28.78;25.63
47080;BME280;33067;49.296;14.470;2023-08-12T09:12:30;97300.85;;;28.89;25.54
47080;BME280;33067;49.296;14.470;2023-08-12T09:14:55;97302.14;;;28.84;25.88
47080;BME280;33067;49.296;14.470;2023-08-12T09:17:22;97301.15;;;29.00;25.14
47080;BME280;33067;49.296;14.470;2023-08-12T09:19:46;97297.38;;;28.87;26.20
47080;BME280;33067;49.296;14.470;2023-08-12T09:22:12;97297.25;;;29.48;25.30
47080;BME280;33067;49.296;14.470;2023-08-12T09:24:37;97293.73;;;29.54;25.51
47080;BME280;33067;49.296;14.470;2023-08-12T09:27:04;97292.44;;;29.60;25.42
47080;BME280;33067;49.296;14.470;2023-08-12T09:29:30;97283.84;;;29.11;25.18
47080;BME280;33067;49.296;14.470;2023-08-12T09:31:54;97282.35;;;29.70;25.11
47080;BME280;33067;49.296;14.470;2023-08-12T09:34:20;97280.63;;;30.24;24.87
47080;BME280;33067;49.296;14.470;2023-08-12T09:36:47;97278.01;;;30.87;24.65
47080;BME280;33067;49.296;14.470;2023-08-12T09:39:13;97276.22;;;30.74;24.77
47080;BME280;33067;49.296;14.470;2023-08-12T09:41:38;97273.48;;;30.73;23.87
47080;BME280;33067;49.296;14.470;2023-08-12T09:44:03;97270.49;;;30.29;24.19
47080;BME280;33067;49.296;14.470;2023-08-12T09:46:28;97265.80;;;30.88;23.67
47080;BME280;33067;49.296;14.470;2023-08-12T09:48:54;97258.28;;;30.16;23.49
47080;BME280;33067;49.296;14.470;2023-08-12T09:51:19;97260.19;;;31.02;23.09
47080;BME280;33067;49.296;14.470;2023-08-12T09:53:47;97261.21;;;30.26;23.13
47080;BME280;33067;49.296;14.470;2023-08-12T09:56:12;97260.53;;;30.90;23.20
47080;BME280;33067;49.296;14.470;2023-08-12T09:58:37;97258.84;;;30.76;23.68
47080;BME280;33067;49.296;14.470;2023-08-12T10:01:03;97258.60;;;31.17;22.48
47080;BME280;33067;49.296;14.470;2023-08-12T10:03:28;97258.95;;;30.90;22.74
47080;BME280;33067;49.296;14.470;2023-08-12T10:05:53;97256.31;;;30.28;24.27
47080;BME280;33067;49.296;14.470;2023-08-12T10:08:19;97256.22;;;30.64;23.69
47080;BME280;33067;49.296;14.470;2023-08-12T10:10:45;97255.57;;;30.91;23.38
47080;BME280;33067;49.296;14.470;2023-08-12T10:13:10;97254.91;;;30.42;22.61
47080;BME280;33067;49.296;14.470;2023-08-12T10:15:36;97260.30;;;30.52;22.61
47080;BME280;33067;49.296;14.470;2023-08-12T10:18:02;97248.90;;;31.09;22.68
47080;BME280;33067;49.296;14.470;2023-08-12T10:20:27;97243.39;;;31.19;21.89
47080;BME280;33067;49.296;14.470;2023-08-12T10:22:54;97237.98;;;31.68;21.69
47080;BME280;33067;49.296;14.470;2023-08-12T10:25:19;97229.22;;;31.01;21.31
47080;BME280;33067;49.296;14.470;2023-08-12T10:27:44;97235.41;;;30.93;21.94
47080;BME280;33067;49.296;14.470;2023-08-12T10:30:10;97232.97;;;30.63;22.75
47080;BME280;33067;49.296;14.470;2023-08-12T10:32:35;97228.13;;;30.33;22.15
47080;BME280;33067;49.296;14.470;2023-08-12T10:35:01;97219.45;;;31.42;22.02
47080;BME280;33067;49.296;14.470;2023-08-12T10:37:27;97213.26;;;30.72;21.93
47080;BME280;33067;49.296;14.470;2023-08-12T10:39:52;97214.29;;;31.10;21.18
47080;BME280;33067;49.296;14.470;2023-08-12T10:44:49;97216.84;;;31.49;21.36
47080;BME280;33067;49.296;14.470;2023-08-12T10:47:09;97214.02;;;31.69;21.06
47080;BME280;33067;49.296;14.470;2023-08-12T10:49:38;97211.88;;;31.66;21.50
47080;BME280;33067;49.296;14.470;2023-08-12T10:52:00;97216.80;;;31.59;21.38
47080;BME280;33067;49.296;14.470;2023-08-12T10:54:27;97212.02;;;31.56;21.07
47080;BME280;33067;49.296;14.470;2023-08-12T11:01:42;97204.00;;;31.17;21.12
47080;BME280;33067;49.296;14.470;2023-08-12T11:04:16;97206.49;;;31.93;21.03
47080;BME280;33067;49.296;14.470;2023-08-12T11:06:43;97197.72;;;31.57;21.40
47080;BME280;33067;49.296;14.470;2023-08-12T11:08:59;97195.00;;;31.07;21.69
47080;BME280;33067;49.296;14.470;2023-08-12T11:11:25;97186.98;;;30.58;21.54
47080;BME280;33067;49.296;14.470;2023-08-12T11:13:53;97192.32;;;31.39;22.11
47080;BME280;33067;49.296;14.470;2023-08-12T11:16:17;97189.33;;;31.43;21.31
47080;BME280;33067;49.296;14.470;2023-08-12T11:18:41;97185.00;;;32.01;20.46
47080;BME280;33067;49.296;14.470;2023-08-12T11:21:07;97187.72;;;32.56;20.12
47080;BME280;33067;49.296;14.470;2023-08-12T11:23:32;97185.40;;;31.99;20.47
47080;BME280;33067;49.296;14.470;2023-08-12T11:25:58;97184.33;;;31.71;20.56
47080;BME280;33067;49.296;14.470;2023-08-12T11:28:24;97179.93;;;31.31;21.26
47080;BME280;33067;49.296;14.470;2023-08-12T11:30:49;97180.14;;;30.90;21.47
47080;BME280;33067;49.296;14.470;2023-08-12T11:33:16;97177.14;;;29.91;22.34
47080;BME280;33067;49.296;14.470;2023-08-12T11:35:40;97170.41;;;30.58;21.96
47080;BME280;33067;49.296;14.470;2023-08-12T11:38:06;97168.06;;;31.49;21.24
47080;BME280;33067;49.296;14.470;2023-08-12T11:40:32;97168.35;;;30.98;21.93
47080;BME280;33067;49.296;14.470;2023-08-12T11:42:57;97160.82;;;31.65;21.05
47080;BME280;33067;49.296;14.470;2023-08-12T11:45:24;97158.90;;;31.64;20.99
47080;BME280;33067;49.296;14.470;2023-08-12T11:47:48;97162.98;;;31.86;20.85
47080;BME280;33067;49.296;14.470;2023-08-12T11:50:14;97160.86;;;31.96;20.09
47080;BME280;33067;49.296;14.470;2023-08-12T11:52:40;97151.55;;;31.95;20.44
47080;BME280;33067;49.296;14.470;2023-08-12T11:55:06;97150.10;;;32.08;20.20
47080;BME280;33067;49.296;14.470;2023-08-12T11:57:31;97146.28;;;31.85;20.88
47080;BME280;33067;49.296;14.470;2023-08-12T11:59:58;97144.92;;;32.55;20.14
47080;BME280;33067;49.296;14.470;2023-08-12T12:02:22;97143.75;;;32.07;20.21
47080;BME280;33067;49.296;14.470;2023-08-12T12:04:47;97143.99;;;32.87;19.95
47080;BME280;33067;49.296;14.470;2023-08-12T12:07:19;97135.24;;;33.06;20.07
47080;BME280;33067;49.296;14.470;2023-08-12T12:09:43;97131.81;;;33.06;19.65
47080;BME280;33067;49.296;14.470;2023-08-12T12:12:04;97131.04;;;33.01;20.13
47080;BME280;33067;49.296;14.470;2023-08-12T12:14:30;97131.77;;;32.69;19.91
47080;BME280;33067;49.296;14.470;2023-08-12T12:16:56;97133.72;;;32.70;20.11
47080;BME280;33067;49.296;14.470;2023-08-12T12:19:22;97125.81;;;32.68;18.97
47080;BME280;33067;49.296;14.470;2023-08-12T12:21:49;97122.20;;;32.30;19.36
47080;BME280;33067;49.296;14.470;2023-08-12T12:24:12;97123.14;;;32.58;19.72
47080;BME280;33067;49.296;14.470;2023-08-12T12:26:38;97118.00;;;31.31;20.20
47080;BME280;33067;49.296;14.470;2023-08-12T12:29:04;97118.80;;;31.94;20.56
47080;BME280;33067;49.296;14.470;2023-08-12T12:31:29;97119.17;;;31.80;19.65
47080;BME280;33067;49.296;14.470;2023-08-12T12:33:54;97117.99;;;32.37;19.42
47080;BME280;33067;49.296;14.470;2023-08-12T12:36:20;97116.87;;;32.41;20.13
47080;BME280;33067;49.296;14.470;2023-08-12T12:38:46;97110.99;;;32.38;20.19
47080;BME280;33067;49.296;14.470;2023-08-12T12:41:11;97105.69;;;32.28;20.06
47080;BME280;33067;49.296;14.470;2023-08-12T12:43:37;97118.78;;;32.15;19.97
47080;BME280;33067;49.296;14.470;2023-08-12T12:46:02;97112.92;;;32.71;19.44
47080;BME280;33067;49.296;14.470;2023-08-12T12:48:28;97109.42;;;32.54;18.88